createdAt,value
2023-05-04T00:06:19.829Z,8.59
2023-05-04T00:16:41.378Z,8.50
2023-05-04T00:27:02.980Z,8.40
2023-05-04T00:37:24.491Z,8.32
2023-05-04T00:47:45.883Z,8.26
2023-05-04T00:58:08.085Z,8.22
2023-05-04T01:08:31.684Z,8.17
2023-05-04T01:18:53.130Z,8.15
2023-05-04T01:29:20.703Z,8.12
2023-05-04T01:39:42.039Z,8.07
2023-05-04T01:50:04.423Z,7.91
2023-05-04T02:00:26.743Z,7.86
2023-05-04T02:10:48.198Z,7.76
2023-05-04T02:21:09.554Z,7.63
2023-05-04T02:31:31.071Z,7.59
2023-05-04T02:41:52.431Z,7.55
2023-05-04T02:52:13.873Z,7.58
2023-05-04T03:02:35.303Z,7.56
2023-05-04T03:12:56.759Z,7.49
2023-05-04T03:23:18.144Z,7.49
2023-05-04T03:33:39.549Z,7.43
2023-05-04T03:44:00.896Z,7.43
2023-05-04T03:54:22.245Z,7.48
2023-05-04T04:04:43.628Z,7.45
2023-05-04T04:15:05.166Z,7.46
2023-05-04T04:25:26.706Z,7.48
2023-05-04T04:35:48.215Z,7.53
2023-05-04T04:46:09.741Z,7.64
2023-05-04T04:56:31.154Z,7.72
2023-05-04T05:06:54.174Z,7.79
2023-05-04T05:17:15.598Z,7.89
2023-05-04T05:27:37.114Z,7.94
2023-05-04T05:37:58.561Z,8.15
2023-05-04T05:48:19.908Z,8.34
2023-05-04T05:58:41.621Z,8.46
2023-05-04T06:09:03.001Z,8.68
2023-05-04T06:19:24.556Z,8.93
2023-05-04T06:29:46.625Z,9.20
2023-05-04T06:40:08.729Z,9.49
2023-05-04T06:50:30.689Z,9.81
2023-05-04T07:00:52.908Z,9.95
2023-05-04T07:11:14.402Z,10.10
2023-05-04T07:21:35.807Z,10.38
2023-05-04T07:31:57.221Z,10.73
2023-05-04T07:42:18.716Z,10.97
2023-05-04T07:52:40.076Z,11.25
2023-05-04T08:03:01.512Z,11.47
2023-05-04T08:13:23.040Z,11.75
2023-05-04T08:23:44.451Z,12.03
2023-05-04T08:34:06.267Z,12.34
2023-05-04T08:44:29.146Z,12.70
2023-05-04T08:54:53.085Z,13.16
2023-05-04T09:05:14.729Z,13.55
2023-05-04T09:15:36.314Z,13.84
2023-05-04T09:25:57.670Z,14.20
2023-05-04T09:36:20.939Z,14.45
2023-05-04T09:46:42.539Z,14.79
2023-05-04T09:57:14.062Z,15.29
2023-05-04T10:07:36.240Z,15.42
2023-05-04T10:18:17.907Z,15.59
2023-05-04T10:28:39.354Z,15.88
2023-05-04T10:39:00.840Z,16.06
2023-05-04T10:49:47.897Z,16.13
2023-05-04T11:00:09.741Z,16.31
2023-05-04T11:10:31.197Z,16.57
2023-05-04T11:20:52.568Z,16.86
2023-05-04T11:31:14.668Z,17.23
2023-05-04T11:41:36.506Z,17.70
2023-05-04T11:52:10.355Z,17.61
2023-05-04T12:02:31.893Z,17.67
2023-05-04T12:12:53.484Z,17.70
2023-05-04T12:23:14.865Z,17.86
2023-05-04T12:33:36.378Z,18.16
2023-05-04T12:43:57.861Z,18.03
2023-05-04T12:54:19.276Z,17.77
2023-05-04T13:04:40.750Z,18.00
2023-05-04T13:15:02.145Z,18.04
2023-05-04T13:25:23.557Z,18.17
2023-05-04T13:35:44.967Z,18.13
2023-05-04T13:46:06.398Z,18.25
2023-05-04T13:56:27.758Z,18.38
2023-05-04T14:06:49.898Z,18.58
2023-05-04T14:17:11.832Z,18.74
2023-05-04T14:27:36.121Z,18.64
2023-05-04T14:37:57.543Z,18.66
2023-05-04T14:48:18.976Z,18.69
2023-05-04T14:58:41.170Z,18.49
2023-05-04T15:09:03.493Z,18.49
2023-05-04T15:19:24.884Z,18.48
2023-05-04T15:29:46.672Z,18.71
2023-05-04T15:40:08.567Z,18.75
2023-05-04T15:50:31.097Z,18.84
2023-05-04T16:00:54.600Z,18.78
2023-05-04T16:11:16.171Z,18.82
2023-05-04T16:21:37.571Z,18.99
2023-05-04T16:31:58.946Z,19.11
2023-05-04T16:42:21.603Z,19.03
2023-05-04T16:52:43.620Z,19.22
2023-05-04T17:03:05.099Z,19.35
2023-05-04T17:13:26.935Z,19.38
2023-05-04T17:23:48.309Z,19.26
2023-05-04T17:34:09.770Z,18.93
2023-05-04T17:44:32.948Z,18.63
2023-05-04T17:54:54.332Z,18.37
2023-05-04T18:05:15.837Z,18.16
2023-05-04T18:15:37.283Z,17.94
2023-05-04T18:25:58.641Z,17.77
2023-05-04T18:36:20.148Z,17.54
2023-05-04T18:46:41.865Z,17.36
2023-05-04T18:57:03.430Z,17.16
2023-05-04T19:07:24.865Z,16.94
2023-05-04T19:17:46.407Z,16.74
2023-05-04T19:28:11.757Z,16.52
2023-05-04T19:38:33.232Z,16.34
2023-05-04T19:48:54.629Z,16.19
2023-05-04T19:59:16.035Z,15.96
2023-05-04T20:09:37.433Z,15.77
2023-05-04T20:19:58.849Z,15.69
2023-05-04T20:30:20.261Z,15.56
2023-05-04T20:40:41.726Z,15.53
2023-05-04T20:51:13.959Z,15.39
2023-05-04T21:01:36.384Z,15.30
2023-05-04T21:11:58.431Z,15.20
2023-05-04T21:22:19.802Z,15.06
2023-05-04T21:32:41.250Z,14.84
2023-05-04T21:43:02.786Z,14.60
2023-05-04T21:53:24.356Z,14.47
2023-05-04T22:03:45.915Z,14.21
2023-05-04T22:14:07.312Z,14.03
2023-05-04T22:24:28.766Z,13.89
2023-05-04T22:34:50.191Z,13.74
2023-05-04T22:45:15.075Z,13.56
2023-05-04T22:55:36.481Z,13.43
2023-05-04T23:06:00.880Z,13.31
2023-05-04T23:16:22.292Z,13.18
2023-05-04T23:26:43.705Z,13.09
2023-05-04T23:37:05.057Z,12.95
2023-05-04T23:47:26.421Z,12.85
2023-05-04T23:57:47.770Z,12.72
